createdAt,value
2019-03-28T07:18:41.715Z,52.67
2019-03-28T07:27:37.080Z,57.75
2019-03-28T07:30:45.364Z,56.23
2019-03-28T07:36:29.702Z,57.13
2019-03-28T07:39:13.931Z,59.45
2019-03-28T07:41:59.800Z,58.95
2019-03-28T07:45:24.633Z,51.37
2019-03-28T07:48:03.834Z,57.13
2019-03-28T07:56:31.345Z,57.80
2019-03-28T07:59:04.911Z,59.67
2019-03-28T08:01:34.938Z,61.33
2019-03-28T08:06:53.075Z,56.92
2019-03-28T08:09:35.793Z,55.83
2019-03-28T08:11:54.410Z,49.80
2019-03-28T08:14:24.357Z,50.28
2019-03-28T08:16:55.031Z,51.88
2019-03-28T08:19:25.374Z,40.52
2019-03-28T08:21:56.243Z,39.40
2019-03-28T08:24:27.661Z,29.55
2019-03-28T08:26:57.497Z,27.65
2019-03-28T08:29:27.440Z,32.42
2019-03-28T08:31:57.703Z,34.43
2019-03-28T08:34:31.253Z,34.83
2019-03-28T08:37:01.581Z,31.70
2019-03-28T08:39:31.859Z,32.55
2019-03-28T08:42:03.267Z,17.07
2019-03-28T08:44:33.180Z,15.70
2019-03-28T09:09:31.447Z,18.10
2019-03-28T09:12:07.624Z,18.57
2019-03-28T09:20:50.979Z,18.52
2019-03-28T09:23:26.885Z,19.75
2019-03-28T09:29:09.695Z,18.45
2019-03-28T09:31:45.187Z,14.98
2019-03-28T09:34:25.832Z,15.40
2019-03-28T09:37:00.639Z,15.95
2019-03-28T09:39:38.141Z,15.70
2019-03-28T09:42:22.737Z,10.58
2019-03-28T09:54:20.109Z,11.93
2019-03-28T09:59:44.909Z,14.25
2019-03-28T10:02:15.833Z,13.32
2019-03-28T10:04:49.835Z,15.08
2019-03-28T10:07:21.568Z,14.38
2019-03-28T10:10:09.266Z,11.00
2019-03-28T10:13:02.339Z,14.05
2019-03-28T10:15:44.244Z,12.00
2019-03-28T10:18:18.561Z,9.28
2019-03-28T10:20:57.402Z,7.75
2019-03-28T10:23:28.228Z,14.85
2019-03-28T10:26:01.059Z,13.32
2019-03-28T10:28:33.656Z,15.45
2019-03-28T10:31:15.728Z,14.40
2019-03-28T10:33:36.875Z,14.85
2019-03-28T10:36:08.421Z,16.17
2019-03-28T10:38:40.937Z,17.20
2019-03-28T10:41:19.775Z,13.20
2019-03-28T10:53:19.179Z,8.95
2019-03-28T11:14:39.531Z,13.30
2019-03-28T11:23:34.949Z,16.02
2019-03-28T11:26:26.630Z,15.93
2019-03-28T11:32:30.652Z,20.00
2019-03-28T11:38:19.272Z,19.15
2019-03-28T11:47:44.168Z,22.22
2019-03-28T11:50:23.054Z,18.12
2019-03-28T11:52:58.694Z,17.00
2019-03-28T11:55:31.927Z,17.30
2019-03-28T12:01:07.660Z,14.10
2019-03-28T12:24:35.762Z,17.05
2019-03-28T12:27:44.630Z,19.98
2019-03-28T12:30:28.078Z,13.78
2019-03-28T12:33:02.742Z,18.87
2019-03-28T12:35:34.665Z,19.42
2019-03-28T12:41:57.201Z,22.02
2019-03-28T12:44:56.439Z,28.25
2019-03-28T12:47:49.263Z,27.30
2019-03-28T12:50:38.110Z,27.73
2019-03-28T12:56:16.524Z,29.20
2019-03-28T12:58:55.641Z,29.20
2019-03-28T13:04:41.823Z,25.90
2019-03-28T13:13:13.911Z,21.73
2019-03-28T13:15:46.390Z,20.80
2019-03-28T13:18:18.322Z,20.75
2019-03-28T13:20:48.949Z,22.15
2019-03-28T13:23:22.526Z,20.02
2019-03-28T13:25:56.216Z,20.12
2019-03-28T13:28:32.760Z,21.57
2019-03-28T13:31:07.831Z,22.20
2019-03-28T13:33:37.809Z,22.25
2019-03-28T13:36:21.454Z,19.95
2019-03-28T13:38:55.060Z,22.05
2019-03-28T13:41:32.661Z,20.12
2019-03-28T13:44:04.599Z,22.00
2019-03-28T13:46:37.347Z,24.90
2019-03-28T13:49:17.080Z,22.77
2019-03-28T13:51:47.799Z,24.20
2019-03-28T13:54:23.224Z,21.42
2019-03-28T13:56:53.287Z,16.05
2019-03-28T13:59:36.928Z,16.45
2019-03-28T14:05:12.942Z,16.75
2019-03-28T14:07:42.816Z,19.00
2019-03-28T14:16:30.445Z,16.52
2019-03-28T14:19:01.612Z,16.57
2019-03-28T14:21:33.632Z,16.93
2019-03-28T14:24:42.634Z,17.45
2019-03-28T14:27:14.008Z,19.67
2019-03-28T14:39:26.552Z,18.27
2019-03-28T14:41:12.708Z,18.50
2019-03-28T14:46:45.983Z,18.37
2019-03-28T14:49:23.728Z,17.75
2019-03-28T14:52:06.220Z,17.75
2019-03-28T14:57:40.833Z,18.65
2019-03-28T15:00:47.044Z,17.52
2019-03-28T15:03:27.307Z,20.67
2019-03-28T15:05:55.941Z,18.12
2019-03-28T15:08:37.601Z,15.38
2019-03-28T15:14:01.281Z,16.65
2019-03-28T15:16:37.545Z,17.57
2019-03-28T15:19:22.845Z,18.27
2019-03-28T15:22:04.536Z,15.10
2019-03-28T15:27:31.222Z,15.40
2019-03-28T15:30:06.861Z,16.95
2019-03-28T15:35:32.775Z,17.52
2019-03-28T15:41:07.452Z,25.40
2019-03-28T15:46:32.081Z,19.67
2019-03-28T15:49:08.123Z,17.45
2019-03-28T15:51:41.377Z,20.35
2019-03-28T15:54:12.889Z,24.57
2019-03-28T15:56:43.751Z,24.32
2019-03-28T15:59:20.787Z,25.15
2019-03-28T16:01:53.351Z,26.85
2019-03-28T16:04:25.127Z,24.85
2019-03-28T16:06:55.192Z,26.20
2019-03-28T16:09:26.425Z,23.02
2019-03-28T16:12:02.358Z,24.00
2019-03-28T16:14:28.409Z,29.90
2019-03-28T16:16:58.807Z,25.57
2019-03-28T16:19:45.031Z,27.75
2019-03-28T16:22:15.655Z,24.52
2019-03-28T16:24:46.641Z,28.67
2019-03-28T16:27:16.671Z,28.60
2019-03-28T16:29:49.891Z,25.50
2019-03-28T16:32:21.294Z,24.95
2019-03-28T16:34:54.206Z,25.80
2019-03-28T16:37:24.818Z,23.87
2019-03-28T16:39:54.676Z,25.43
2019-03-28T16:42:24.587Z,28.15
2019-03-28T16:44:56.081Z,24.25
2019-03-28T16:47:26.823Z,27.80
2019-03-28T16:49:56.683Z,26.12
2019-03-28T16:52:26.672Z,25.65
2019-03-28T16:54:59.082Z,26.23
2019-03-28T17:00:37.133Z,27.75
2019-03-28T17:03:14.497Z,27.20
2019-03-28T17:05:47.243Z,30.02
2019-03-28T17:08:23.587Z,28.60
2019-03-28T17:10:57.513Z,28.07
2019-03-28T17:13:29.170Z,28.92
2019-03-28T17:15:59.863Z,30.10
2019-03-28T17:18:31.255Z,27.93
2019-03-28T17:23:54.719Z,31.77
2019-03-28T17:26:26.843Z,27.77
2019-03-28T17:28:57.543Z,29.07
2019-03-28T17:31:30.364Z,30.70
2019-03-28T17:34:01.040Z,29.92
2019-03-28T17:36:36.731Z,34.00
2019-03-28T17:39:08.946Z,29.80
2019-03-28T17:41:40.699Z,32.98
2019-03-28T17:44:13.001Z,31.25
2019-03-28T17:46:42.528Z,30.20
2019-03-28T17:49:12.433Z,26.05
2019-03-28T17:51:47.576Z,29.18
2019-03-28T17:54:19.855Z,35.08
2019-03-28T17:56:49.815Z,30.12
2019-03-28T17:59:19.817Z,34.90
2019-03-28T18:01:49.798Z,31.77
2019-03-28T18:04:23.033Z,28.85
2019-03-28T18:06:51.384Z,31.35
2019-03-28T18:09:21.326Z,27.30
2019-03-28T18:12:00.707Z,33.40
2019-03-28T18:14:30.673Z,30.90
2019-03-28T18:17:06.838Z,29.80
2019-03-28T18:19:36.842Z,33.75
2019-03-28T18:22:09.108Z,33.67
2019-03-28T18:24:39.713Z,36.25
2019-03-28T18:27:10.458Z,35.15
2019-03-28T18:29:41.816Z,38.58
2019-03-28T18:32:11.829Z,35.25
2019-03-28T18:34:42.057Z,34.30
2019-03-28T18:37:12.094Z,41.42
2019-03-28T18:39:42.395Z,35.85
2019-03-28T18:42:14.198Z,33.95
2019-03-28T18:44:48.679Z,39.40
2019-03-28T18:53:10.404Z,38.45
2019-03-28T18:58:23.818Z,37.58
2019-03-28T19:01:04.477Z,38.90
2019-03-28T19:06:45.007Z,36.68
2019-03-28T19:12:37.468Z,37.93
2019-03-28T19:15:24.879Z,42.25
2019-03-28T19:18:38.123Z,36.90
2019-03-28T19:24:28.574Z,45.05
2019-03-28T19:45:57.157Z,41.75
2019-03-28T20:04:05.112Z,46.33
2019-03-28T20:06:38.885Z,48.42
2019-03-28T20:09:28.511Z,50.40
2019-03-28T20:15:21.417Z,49.00
2019-03-28T20:26:30.586Z,48.48
2019-03-28T20:29:19.639Z,52.75
2019-03-28T20:31:59.650Z,56.35
2019-03-28T20:34:39.486Z,53.10
2019-03-28T20:37:09.801Z,52.30
2019-03-28T20:39:41.462Z,48.25
2019-03-28T20:42:11.545Z,51.30
2019-03-28T20:44:44.742Z,48.35
2019-03-28T20:47:14.807Z,49.25
2019-03-28T20:49:46.878Z,55.10
2019-03-28T20:52:19.069Z,54.98
2019-03-28T20:54:51.102Z,58.45
2019-03-28T20:57:20.928Z,56.45
2019-03-28T20:59:55.173Z,64.92
2019-03-28T21:02:26.299Z,63.52
2019-03-28T21:04:57.799Z,62.48
2019-03-28T21:07:29.676Z,73.40
2019-03-28T21:10:00.209Z,66.00
2019-03-28T21:12:30.204Z,67.92
2019-03-28T21:15:14.631Z,65.97
2019-03-28T21:17:48.791Z,64.35
2019-03-28T21:20:19.761Z,62.35
2019-03-28T21:22:49.766Z,61.33
2019-03-28T21:25:22.261Z,59.77
2019-03-28T21:28:04.743Z,57.17
2019-03-28T21:30:47.364Z,70.90
2019-03-28T21:33:14.863Z,65.67
2019-03-28T21:35:46.000Z,62.48
2019-03-28T21:38:17.545Z,60.73
2019-03-28T21:40:59.528Z,60.03
2019-03-28T21:43:32.102Z,59.77
2019-03-28T21:46:04.155Z,62.33
2019-03-28T21:48:38.223Z,62.53
2019-03-28T21:51:15.309Z,62.88
2019-03-28T21:53:56.568Z,59.88
2019-03-28T21:56:25.241Z,63.15
2019-03-28T21:58:57.193Z,61.73
2019-03-28T22:07:19.515Z,65.65
2019-03-28T22:09:57.130Z,58.45
2019-03-28T22:12:38.146Z,58.48
2019-03-28T22:24:29.870Z,58.48
2019-03-28T22:27:26.120Z,58.02
2019-03-28T22:48:19.150Z,65.17
2019-03-28T22:59:46.244Z,67.95
2019-03-28T23:02:20.884Z,65.50
2019-03-28T23:14:14.693Z,67.87
2019-03-28T23:16:49.810Z,61.28
2019-03-28T23:19:47.514Z,62.75
2019-03-28T23:22:39.200Z,69.12
2019-03-28T23:25:16.027Z,68.57
2019-03-28T23:27:50.124Z,69.17
2019-03-28T23:30:23.690Z,63.60
2019-03-28T23:32:59.561Z,63.85
2019-03-28T23:35:35.499Z,63.92
2019-03-28T23:38:05.549Z,63.87
2019-03-28T23:40:38.132Z,65.65
2019-03-28T23:43:08.355Z,69.72
2019-03-28T23:45:42.818Z,60.48
2019-03-28T23:48:18.187Z,60.28
2019-03-28T23:50:49.875Z,66.72
2019-03-28T23:53:23.320Z,58.45
2019-03-28T23:55:57.362Z,64.25
2019-03-28T23:58:32.704Z,60.25
